Time;durP1;ratioP1;P1;durP2;ratioP2;P2;SDS_P1;SDS_P2;PMS_P1;PMS_P2;Temp;Humidity;BMP_temperature;BMP_pressure;BME280_temperature;BME280_humidity;BME280_pressure;Samples;Min_cycle;Max_cycle;Signal;HPM_P1;HPM_P2
2021/05/08 00:02:15;;;;;;;9.23;8.27;;;5.00;99.90;;;;;;5012242;28;20660;-67
2021/05/08 00:04:41;;;;;;;9.23;7.80;;;5.00;99.90;;;;;;4999378;28;20207;-67
2021/05/08 00:07:06;;;;;;;11.13;7.87;;;5.00;99.90;;;;;;4993227;28;20241;-67
2021/05/08 00:09:32;;;;;;;8.37;7.30;;;5.00;99.90;;;;;;5009183;28;20550;-68
2021/05/08 00:11:58;;;;;;;8.53;7.73;;;5.00;99.90;;;;;;5005505;28;20442;-67
2021/05/08 00:14:24;;;;;;;13.03;9.73;;;5.00;99.90;;;;;;5002990;28;20289;-67
2021/05/08 00:16:50;;;;;;;8.80;7.93;;;5.10;99.90;;;;;;5012042;28;20222;-67
2021/05/08 00:19:16;;;;;;;9.20;8.13;;;5.10;99.90;;;;;;5007857;28;20569;-67
2021/05/08 00:21:41;;;;;;;8.10;7.27;;;5.10;99.90;;;;;;5006317;28;20176;-67
2021/05/08 00:24:07;;;;;;;10.43;8.70;;;5.20;99.90;;;;;;4992905;28;20186;-68
2021/05/08 00:26:33;;;;;;;11.70;8.67;;;5.20;99.90;;;;;;4999439;28;20190;-67
2021/05/08 00:28:58;;;;;;;10.07;8.47;;;5.20;99.90;;;;;;5010831;28;21023;-67
2021/05/08 00:31:24;;;;;;;9.93;8.37;;;5.20;99.90;;;;;;5008769;28;20637;-67
2021/05/08 00:33:50;;;;;;;9.10;7.73;;;5.20;99.90;;;;;;5005422;28;20254;-68
2021/05/08 00:36:15;;;;;;;8.20;7.40;;;5.20;99.90;;;;;;4996788;28;20207;-68
2021/05/08 00:38:41;;;;;;;9.60;8.70;;;5.10;99.90;;;;;;4992085;28;20177;-67
2021/05/08 00:41:07;;;;;;;9.53;8.50;;;5.10;99.90;;;;;;5010747;28;20175;-66
2021/05/08 00:43:33;;;;;;;9.70;8.70;;;5.10;99.90;;;;;;5009501;28;20186;-67
2021/05/08 00:45:58;;;;;;;10.10;8.47;;;5.00;99.90;;;;;;4996852;28;20337;-67
2021/05/08 00:48:26;;;;;;;8.47;7.67;;;4.90;99.90;;;;;;5009408;28;21026;-67
2021/05/08 00:50:52;;;;;;;8.17;7.47;;;4.80;99.90;;;;;;5005193;28;20589;-68
2021/05/08 00:53:18;;;;;;;9.00;8.10;;;4.70;99.90;;;;;;5011265;28;20442;-68
2021/05/08 00:55:44;;;;;;;8.93;8.10;;;4.70;99.90;;;;;;5006696;28;20202;-68
2021/05/08 00:58:10;;;;;;;10.90;8.07;;;4.70;99.90;;;;;;5010285;28;20499;-68
2021/05/08 01:00:37;;;;;;;8.93;8.03;;;4.60;99.90;;;;;;4992149;28;20658;-68
2021/05/08 01:03:04;;;;;;;8.83;8.00;;;4.70;99.90;;;;;;4998930;28;20233;-68
2021/05/08 01:05:32;;;;;;;8.70;7.67;;;4.70;99.90;;;;;;5008159;28;20446;-68
2021/05/08 01:08:00;;;;;;;10.03;8.20;;;4.70;99.90;;;;;;5011166;28;20464;-68
2021/05/08 01:10:26;;;;;;;7.90;7.20;;;4.70;99.90;;;;;;4994355;28;20510;-68
2021/05/08 01:12:53;;;;;;;8.73;7.37;;;4.70;99.90;;;;;;4998411;28;20434;-68
2021/05/08 01:15:20;;;;;;;11.10;8.33;;;4.70;99.90;;;;;;4991861;28;20462;-68
2021/05/08 01:17:45;;;;;;;8.87;8.00;;;4.70;99.90;;;;;;5005180;28;20456;-68
2021/05/08 01:20:12;;;;;;;7.83;6.80;;;4.60;99.90;;;;;;5010602;28;20433;-68
2021/05/08 01:22:38;;;;;;;8.10;7.30;;;4.60;99.90;;;;;;5006969;28;20176;-68
2021/05/08 01:25:06;;;;;;;10.17;8.60;;;4.60;99.90;;;;;;5004461;28;20488;-68
2021/05/08 01:27:32;;;;;;;8.07;6.97;;;4.60;99.90;;;;;;5006787;28;20451;-68
2021/05/08 01:29:57;;;;;;;12.20;8.13;;;4.60;99.90;;;;;;5002304;28;21106;-68
2021/05/08 01:32:23;;;;;;;14.53;7.97;;;4.60;99.90;;;;;;5010356;28;20179;-68
2021/05/08 01:34:48;;;;;;;8.63;7.73;;;4.50;99.90;;;;;;5009225;28;20207;-68
2021/05/08 01:37:14;;;;;;;8.90;8.00;;;4.50;99.90;;;;;;5008622;28;20735;-68
2021/05/08 01:39:39;;;;;;;7.83;7.13;;;4.50;99.90;;;;;;5001502;28;20174;-68
2021/05/08 01:42:05;;;;;;;8.50;7.57;;;4.50;99.90;;;;;;5002492;28;20191;-69
2021/05/08 01:44:30;;;;;;;8.23;7.43;;;4.40;99.90;;;;;;5010131;28;20177;-69
2021/05/08 01:46:56;;;;;;;7.80;7.10;;;4.30;99.90;;;;;;5010342;28;20226;-69
2021/05/08 01:49:22;;;;;;;7.60;6.90;;;4.30;99.90;;;;;;5007870;28;20229;-68
2021/05/08 01:51:48;;;;;;;7.77;6.97;;;4.30;99.90;;;;;;4999599;28;20449;-69
2021/05/08 01:54:15;;;;;;;7.77;6.70;;;4.30;99.90;;;;;;4993230;28;20191;-68
2021/05/08 01:56:40;;;;;;;8.47;7.67;;;4.30;99.90;;;;;;5003965;28;20234;-68
2021/05/08 01:59:06;;;;;;;8.27;7.33;;;4.20;99.90;;;;;;5000638;28;20852;-68
2021/05/08 02:01:31;;;;;;;6.80;6.20;;;4.20;99.90;;;;;;4992833;28;20179;-68
2021/05/08 02:03:57;;;;;;;6.67;6.13;;;4.10;99.90;;;;;;4997972;28;20181;-68
2021/05/08 02:06:23;;;;;;;7.30;6.40;;;4.00;99.90;;;;;;5006378;28;20202;-68
2021/05/08 02:08:48;;;;;;;7.83;7.07;;;4.00;99.90;;;;;;4996355;28;20190;-68
2021/05/08 02:11:14;;;;;;;7.17;6.47;;;4.00;99.90;;;;;;5011517;28;20830;-68
2021/05/08 02:13:39;;;;;;;7.60;6.60;;;4.00;99.90;;;;;;5012562;28;20253;-68
2021/05/08 02:16:05;;;;;;;7.83;7.10;;;4.00;99.90;;;;;;5008370;28;20236;-68
2021/05/08 02:18:30;;;;;;;8.73;7.93;;;4.00;99.90;;;;;;5006453;28;20206;-68
2021/05/08 02:20:56;;;;;;;9.00;8.00;;;4.10;99.90;;;;;;4999719;28;20183;-68
2021/05/08 02:23:22;;;;;;;8.67;7.80;;;4.10;99.90;;;;;;5001119;28;20483;-69
2021/05/08 02:25:48;;;;;;;9.67;8.67;;;4.10;99.90;;;;;;5013089;28;20267;-69
2021/05/08 02:28:13;;;;;;;9.50;8.60;;;4.10;99.90;;;;;;5004451;28;20184;-69
2021/05/08 02:30:41;;;;;;;11.27;9.73;;;4.10;99.90;;;;;;5007193;28;20183;-68
2021/05/08 02:33:07;;;;;;;9.33;8.33;;;4.00;99.90;;;;;;5004116;28;20183;-68
2021/05/08 02:35:34;;;;;;;10.43;9.33;;;4.00;99.90;;;;;;5009908;28;20466;-69
2021/05/08 02:38:01;;;;;;;9.00;8.10;;;4.00;99.90;;;;;;4997252;28;20492;-68
2021/05/08 02:40:28;;;;;;;13.07;8.83;;;3.90;99.90;;;;;;5002653;28;20439;-68
2021/05/08 02:42:54;;;;;;;10.80;7.90;;;3.80;99.90;;;;;;5002290;28;20483;-68
2021/05/08 02:45:20;;;;;;;8.47;7.77;;;3.80;99.90;;;;;;5010998;28;20446;-68
2021/05/08 02:47:48;;;;;;;11.93;9.93;;;3.80;99.90;;;;;;4994769;28;20820;-68
2021/05/08 02:50:16;;;;;;;9.80;8.67;;;3.80;99.90;;;;;;5009684;28;20434;-68
2021/05/08 02:52:42;;;;;;;9.60;8.63;;;3.70;99.90;;;;;;5011568;28;20429;-69
2021/05/08 02:55:08;;;;;;;9.57;8.50;;;3.70;99.90;;;;;;5013044;28;20472;-69
2021/05/08 02:57:35;;;;;;;9.80;8.90;;;3.70;99.90;;;;;;5013047;28;20299;-68
2021/05/08 03:00:01;;;;;;;8.33;7.40;;;3.70;99.90;;;;;;5007779;28;20503;-68
2021/05/08 03:02:26;;;;;;;8.63;7.67;;;3.70;99.90;;;;;;5009663;28;20437;-69
2021/05/08 03:04:52;;;;;;;9.27;8.37;;;3.60;99.90;;;;;;5013647;28;20548;-68
2021/05/08 03:07:18;;;;;;;9.00;8.10;;;3.70;99.90;;;;;;5000834;28;20287;-68
2021/05/08 03:09:44;;;;;;;9.27;7.90;;;3.60;99.90;;;;;;5007722;28;20282;-69
2021/05/08 03:12:10;;;;;;;10.60;8.00;;;3.60;99.90;;;;;;5001783;28;20206;-68
2021/05/08 03:14:36;;;;;;;9.70;8.70;;;3.60;99.90;;;;;;5000084;28;20803;-68
2021/05/08 03:17:02;;;;;;;9.77;8.77;;;3.60;99.90;;;;;;5003016;28;20533;-69
2021/05/08 03:19:28;;;;;;;9.90;8.50;;;3.60;99.90;;;;;;5000768;28;20190;-69
2021/05/08 03:21:54;;;;;;;12.20;8.37;;;3.60;99.90;;;;;;5000323;28;20521;-69
2021/05/08 03:24:19;;;;;;;9.23;8.20;;;3.50;99.90;;;;;;5001244;28;20187;-69
2021/05/08 03:26:45;;;;;;;8.60;7.80;;;3.50;99.90;;;;;;5007847;28;20457;-68
2021/05/08 03:29:10;;;;;;;12.17;8.10;;;3.60;99.90;;;;;;5004291;28;20650;-68
2021/05/08 03:31:36;;;;;;;9.37;8.40;;;3.60;99.90;;;;;;5003415;28;20178;-68
2021/05/08 03:34:02;;;;;;;9.17;8.17;;;3.60;99.90;;;;;;4997762;28;20225;-69
2021/05/08 03:36:28;;;;;;;16.03;8.00;;;3.50;99.90;;;;;;5007815;28;20291;-69
2021/05/08 03:38:54;;;;;;;14.30;8.10;;;3.50;99.90;;;;;;5008315;28;20737;-69
2021/05/08 03:41:21;;;;;;;9.10;8.30;;;3.40;99.90;;;;;;5012613;28;20187;-69
2021/05/08 03:43:46;;;;;;;10.13;8.90;;;3.40;99.90;;;;;;5003512;28;20206;-68
2021/05/08 03:46:12;;;;;;;8.83;8.03;;;3.50;99.90;;;;;;5008660;28;20471;-69
2021/05/08 03:48:38;;;;;;;7.37;6.67;;;3.50;99.90;;;;;;5001540;28;20273;-69
2021/05/08 03:51:03;;;;;;;14.03;7.83;;;3.50;99.90;;;;;;5000495;28;20274;-69
2021/05/08 03:53:29;;;;;;;11.67;7.10;;;3.50;99.90;;;;;;5001215;28;20178;-69
2021/05/08 03:55:54;;;;;;;7.30;6.40;;;3.50;99.90;;;;;;5003079;28;20198;-69
2021/05/08 03:58:29;;;;;;;8.20;7.33;;;3.50;99.90;;;;;;5009803;28;20176;-68
2021/05/08 04:00:56;;;;;;;7.47;6.80;;;3.50;99.90;;;;;;5006630;28;20640;-68
2021/05/08 04:03:21;;;;;;;9.50;7.50;;;3.50;99.90;;;;;;5011184;28;20802;-68
2021/05/08 04:05:47;;;;;;;8.23;7.37;;;3.50;99.90;;;;;;5012381;28;20441;-69
2021/05/08 04:08:13;;;;;;;7.53;6.83;;;3.50;99.90;;;;;;5007963;28;20186;-68
2021/05/08 04:10:39;;;;;;;10.67;7.20;;;3.60;99.90;;;;;;5008136;28;20167;-69
2021/05/08 04:13:05;;;;;;;9.93;6.70;;;3.70;99.90;;;;;;5004122;28;20442;-69
2021/05/08 04:15:31;;;;;;;7.90;6.40;;;3.80;99.90;;;;;;5009922;28;20206;-68
2021/05/08 04:17:56;;;;;;;7.63;6.73;;;3.90;99.90;;;;;;5012099;28;20528;-68
2021/05/08 04:20:22;;;;;;;6.90;5.40;;;4.00;99.90;;;;;;5003669;28;20641;-69
2021/05/08 04:22:47;;;;;;;7.27;6.60;;;4.10;99.90;;;;;;5006463;28;20178;-69
2021/05/08 04:25:13;;;;;;;6.37;5.77;;;4.20;99.90;;;;;;5001871;28;20186;-69
2021/05/08 04:27:39;;;;;;;8.17;7.03;;;4.20;99.90;;;;;;4997927;28;20207;-69
2021/05/08 04:30:06;;;;;;;6.87;6.27;;;4.30;99.90;;;;;;5006886;28;20171;-69
2021/05/08 04:32:31;;;;;;;6.87;6.23;;;4.40;99.90;;;;;;5010746;28;20445;-69
2021/05/08 04:34:57;;;;;;;6.80;6.20;;;4.50;99.90;;;;;;5005734;28;20470;-68
2021/05/08 04:37:22;;;;;;;7.00;6.40;;;4.50;99.90;;;;;;4992518;28;20685;-68
2021/05/08 04:39:48;;;;;;;7.63;6.90;;;4.70;99.90;;;;;;5008600;28;20258;-69
2021/05/08 04:42:13;;;;;;;6.60;5.93;;;4.80;99.90;;;;;;4995696;28;20180;-68
2021/05/08 04:44:39;;;;;;;9.00;7.40;;;4.80;99.90;;;;;;5011841;28;20175;-69
2021/05/08 04:47:05;;;;;;;7.17;6.47;;;4.80;99.90;;;;;;5000628;28;20583;-69
2021/05/08 04:49:31;;;;;;;9.23;7.30;;;4.70;99.90;;;;;;4992585;28;20270;-69
2021/05/08 04:51:56;;;;;;;8.27;7.47;;;4.70;99.90;;;;;;5004514;28;20518;-69
2021/05/08 04:54:23;;;;;;;6.87;6.20;;;4.80;99.90;;;;;;5002327;28;20198;-68
2021/05/08 04:56:48;;;;;;;9.13;7.90;;;5.00;99.90;;;;;;4997931;28;20558;-69
2021/05/08 04:59:14;;;;;;;9.63;7.13;;;5.20;99.90;;;;;;5009595;28;20422;-69
2021/05/08 05:01:39;;;;;;;5.93;5.43;;;5.20;99.90;;;;;;4998523;28;20184;-69
2021/05/08 05:04:05;;;;;;;8.13;7.43;;;5.20;99.90;;;;;;4993105;28;20688;-68
2021/05/08 05:06:31;;;;;;;7.50;6.90;;;5.30;99.90;;;;;;5006078;28;20704;-69
2021/05/08 05:08:56;;;;;;;7.67;6.87;;;5.50;99.90;;;;;;5002606;28;20173;-69
2021/05/08 05:11:22;;;;;;;7.70;7.00;;;5.70;99.90;;;;;;4993970;28;20634;-69
2021/05/08 05:13:48;;;;;;;9.03;8.10;;;5.80;99.90;;;;;;5008688;28;20666;-69
2021/05/08 05:16:15;;;;;;;10.90;7.27;;;5.80;99.90;;;;;;5020635;28;20202;-69
2021/05/08 05:18:40;;;;;;;8.67;6.70;;;5.80;99.90;;;;;;5019839;28;20431;-69
2021/05/08 05:21:06;;;;;;;6.43;5.83;;;5.80;99.90;;;;;;5008659;28;21013;-69
2021/05/08 05:23:31;;;;;;;8.20;6.67;;;5.70;99.90;;;;;;5014609;28;20195;-69
2021/05/08 05:25:57;;;;;;;7.63;6.63;;;5.70;99.90;;;;;;5013852;28;20640;-69
2021/05/08 05:28:24;;;;;;;10.33;7.17;;;5.90;99.90;;;;;;4995956;28;20230;-68
2021/05/08 05:30:51;;;;;;;6.70;6.10;;;6.00;99.90;;;;;;5005622;28;21015;-68
2021/05/08 05:33:17;;;;;;;6.63;6.10;;;6.20;99.90;;;;;;5002219;28;20997;-68
2021/05/08 05:35:42;;;;;;;6.80;6.30;;;6.40;99.90;;;;;;5004406;28;20509;-68
2021/05/08 05:38:08;;;;;;;6.77;6.27;;;6.50;99.90;;;;;;5015803;28;20848;-68
2021/05/08 05:40:34;;;;;;;6.43;5.67;;;6.80;99.90;;;;;;5012169;28;20175;-68
2021/05/08 05:42:59;;;;;;;6.50;5.90;;;7.10;99.90;;;;;;4997986;28;20233;-69
2021/05/08 05:45:25;;;;;;;6.53;5.90;;;7.30;99.90;;;;;;5009593;28;20197;-68
2021/05/08 05:47:57;;;;;;;6.77;6.13;;;7.50;99.90;;;;;;4996890;28;20577;-68
2021/05/08 05:50:24;;;;;;;7.43;6.30;;;7.70;99.90;;;;;;5000574;28;20681;-69
2021/05/08 05:52:50;;;;;;;7.43;6.63;;;7.80;99.90;;;;;;5001666;28;20867;-69
2021/05/08 05:55:15;;;;;;;7.00;6.40;;;7.90;99.90;;;;;;4994605;28;20458;-69
2021/05/08 05:57:41;;;;;;;6.60;5.90;;;8.10;99.90;;;;;;5010381;28;20573;-69
2021/05/08 06:00:07;;;;;;;7.47;6.77;;;8.00;99.90;;;;;;4994024;28;20179;-68
2021/05/08 06:02:35;;;;;;;6.37;5.77;;;8.20;99.90;;;;;;5003815;28;20227;-68
2021/05/08 06:05:01;;;;;;;6.90;6.20;;;8.40;99.90;;;;;;5002721;28;20426;-68
2021/05/08 06:07:26;;;;;;;9.53;5.90;;;8.60;99.90;;;;;;5002031;28;20449;-69
2021/05/08 06:09:52;;;;;;;7.17;6.33;;;8.60;99.90;;;;;;4995751;28;20179;-68
2021/05/08 06:12:17;;;;;;;5.90;5.40;;;8.50;99.90;;;;;;5003428;28;20183;-68
2021/05/08 06:14:43;;;;;;;5.90;5.40;;;8.60;99.90;;;;;;4993466;28;20582;-69
2021/05/08 06:17:08;;;;;;;6.97;5.90;;;8.70;99.90;;;;;;5004237;28;20840;-69
2021/05/08 06:19:34;;;;;;;9.43;5.10;;;8.70;99.90;;;;;;5008907;28;20189;-69
2021/05/08 06:21:59;;;;;;;10.20;5.97;;;8.90;99.90;;;;;;4998243;28;20184;-68
2021/05/08 06:24:25;;;;;;;7.63;6.17;;;9.10;99.90;;;;;;5008283;28;20180;-69
2021/05/08 06:26:50;;;;;;;6.60;6.00;;;9.30;99.90;;;;;;4997074;28;20234;-68
2021/05/08 06:29:16;;;;;;;6.10;4.93;;;9.20;99.90;;;;;;5010256;28;20182;-68
2021/05/08 06:31:41;;;;;;;6.63;5.07;;;9.00;99.90;;;;;;4997635;28;20183;-69
2021/05/08 06:34:07;;;;;;;8.33;6.63;;;9.00;99.90;;;;;;5007678;28;20185;-68
2021/05/08 06:36:32;;;;;;;6.03;5.10;;;8.90;99.90;;;;;;5001631;28;20286;-68
2021/05/08 06:38:58;;;;;;;6.40;5.73;;;9.00;99.90;;;;;;5008493;28;20242;-68
2021/05/08 06:41:23;;;;;;;6.17;5.53;;;9.30;99.90;;;;;;5005219;28;20763;-68
2021/05/08 06:43:49;;;;;;;5.83;5.17;;;9.40;99.90;;;;;;4991775;28;20184;-72
2021/05/08 06:46:15;;;;;;;8.33;5.73;;;9.40;99.90;;;;;;5002732;28;20233;-72
2021/05/08 06:48:40;;;;;;;7.63;5.83;;;9.40;99.90;;;;;;5003652;28;20266;-68
2021/05/08 06:51:07;;;;;;;6.13;5.53;;;9.50;99.90;;;;;;5006947;28;20191;-68
2021/05/08 06:53:33;;;;;;;5.90;5.33;;;9.70;99.90;;;;;;4998372;28;20177;-68
2021/05/08 06:55:59;;;;;;;8.57;5.67;;;9.80;99.90;;;;;;5000494;28;20465;-67
2021/05/08 06:58:24;;;;;;;16.60;9.30;;;10.00;99.90;;;;;;4994300;28;20434;-69
2021/05/08 07:00:50;;;;;;;7.43;6.10;;;10.30;99.90;;;;;;4999438;28;20614;-68
2021/05/08 07:03:15;;;;;;;6.20;5.60;;;10.20;99.90;;;;;;4997103;28;20313;-67
2021/05/08 07:05:41;;;;;;;6.10;5.60;;;10.40;99.90;;;;;;5013401;28;20257;-67
2021/05/08 07:08:08;;;;;;;9.30;5.47;;;10.80;99.90;;;;;;5012697;28;20229;-68
2021/05/08 07:10:42;;;;;;;5.73;5.33;;;10.90;99.90;;;;;;5007166;28;20644;-67
2021/05/08 07:13:07;;;;;;;6.17;5.67;;;10.90;99.90;;;;;;5011349;28;20437;-67
2021/05/08 07:15:33;;;;;;;6.17;5.57;;;10.90;99.90;;;;;;5005337;28;20449;-67
2021/05/08 07:18:00;;;;;;;6.90;6.30;;;10.90;99.90;;;;;;5013721;28;20199;-68
2021/05/08 07:20:25;;;;;;;7.70;5.73;;;11.20;99.90;;;;;;4994129;28;20210;-69
2021/05/08 07:22:51;;;;;;;6.20;5.50;;;11.30;99.90;;;;;;5008250;28;20461;-68
2021/05/08 07:25:17;;;;;;;6.40;5.80;;;11.40;99.90;;;;;;5011314;28;20186;-68
2021/05/08 07:27:42;;;;;;;6.90;6.20;;;11.60;99.90;;;;;;5000191;28;20191;-67
2021/05/08 07:30:08;;;;;;;6.53;6.00;;;11.90;99.90;;;;;;4996060;28;20246;-68
2021/05/08 07:32:34;;;;;;;6.67;6.07;;;12.20;99.90;;;;;;4995517;28;20183;-68
2021/05/08 07:35:00;;;;;;;5.90;5.40;;;12.60;99.90;;;;;;5000719;28;20457;-68
2021/05/08 07:37:26;;;;;;;4.80;4.40;;;12.80;99.90;;;;;;5007063;28;20458;-69
2021/05/08 07:39:51;;;;;;;5.47;4.93;;;12.80;99.90;;;;;;4993681;28;20172;-69
2021/05/08 07:42:17;;;;;;;5.10;4.53;;;12.70;99.90;;;;;;5011108;28;20179;-69
2021/05/08 07:44:42;;;;;;;4.80;4.40;;;12.80;99.90;;;;;;5003650;28;20190;-67
2021/05/08 07:47:08;;;;;;;4.80;4.40;;;12.80;99.90;;;;;;5017929;28;20205;-68
2021/05/08 07:49:33;;;;;;;4.73;4.33;;;13.20;99.90;;;;;;5020611;28;20210;-68
2021/05/08 07:51:59;;;;;;;4.40;4.00;;;13.60;99.90;;;;;;5005407;28;20267;-68
2021/05/08 07:54:24;;;;;;;4.10;3.70;;;13.50;99.90;;;;;;5003281;28;20183;-69
2021/05/08 07:56:50;;;;;;;4.50;4.20;;;13.80;98.60;;;;;;5008933;28;20692;-67
2021/05/08 07:59:15;;;;;;;4.57;3.77;;;13.80;97.60;;;;;;4994052;28;20183;-68
2021/05/08 08:01:41;;;;;;;3.73;3.40;;;13.60;97.60;;;;;;5003945;28;20167;-68
2021/05/08 08:04:06;;;;;;;3.37;3.17;;;13.50;97.80;;;;;;4994540;28;20176;-69
2021/05/08 08:06:32;;;;;;;3.67;3.43;;;13.70;98.00;;;;;;5011908;28;20206;-67
2021/05/08 08:08:57;;;;;;;4.00;3.70;;;13.80;96.40;;;;;;5005536;28;20549;-66
2021/05/08 08:11:23;;;;;;;3.70;3.23;;;13.80;96.90;;;;;;4993506;28;20183;-65
2021/05/08 08:13:49;;;;;;;3.57;3.10;;;13.60;95.60;;;;;;5006674;28;20620;-66
2021/05/08 08:16:14;;;;;;;3.43;3.13;;;13.80;96.20;;;;;;5010897;28;20206;-67
2021/05/08 08:18:40;;;;;;;3.70;3.40;;;14.00;95.30;;;;;;5005463;28;20224;-67
2021/05/08 08:21:06;;;;;;;2.77;2.57;;;14.00;94.10;;;;;;5001252;28;20234;-67
2021/05/08 08:23:31;;;;;;;3.20;2.77;;;14.10;94.10;;;;;;4999636;28;20257;-66
2021/05/08 08:25:57;;;;;;;3.30;3.10;;;14.40;93.90;;;;;;5003367;28;20203;-67
2021/05/08 08:28:22;;;;;;;4.10;3.70;;;14.30;92.90;;;;;;5011281;28;20182;-67
2021/05/08 08:30:48;;;;;;;3.47;3.17;;;14.50;93.80;;;;;;5002485;28;20176;-65
2021/05/08 08:33:14;;;;;;;4.67;3.33;;;14.80;93.60;;;;;;5005853;28;20179;-66
2021/05/08 08:35:39;;;;;;;2.90;2.70;;;15.10;92.30;;;;;;5001881;28;20260;-67
2021/05/08 08:38:06;;;;;;;4.73;2.90;;;15.40;91.50;;;;;;5011134;28;20237;-67
2021/05/08 08:40:31;;;;;;;3.50;3.10;;;15.50;88.10;;;;;;5008336;28;20182;-67
2021/05/08 08:42:57;;;;;;;2.90;2.80;;;15.30;90.00;;;;;;5009816;28;20879;-67
2021/05/08 08:45:23;;;;;;;4.57;3.03;;;15.40;89.20;;;;;;5014454;28;20590;-66
2021/05/08 08:47:49;;;;;;;3.10;2.73;;;15.50;87.70;;;;;;5004415;28;20297;-67
2021/05/08 08:50:15;;;;;;;3.60;3.30;;;15.40;87.20;;;;;;5007997;28;20183;-67
2021/05/08 08:52:41;;;;;;;5.50;5.00;;;15.70;86.20;;;;;;5008129;28;20214;-67
2021/05/08 08:55:09;;;;;;;4.43;3.03;;;16.00;86.60;;;;;;5011775;28;20453;-67
2021/05/08 08:57:38;;;;;;;2.40;2.20;;;16.40;83.60;;;;;;5001472;28;20565;-66
2021/05/08 09:00:12;;;;;;;3.10;2.83;;;16.80;78.90;;;;;;5004174;28;20778;-67
2021/05/08 09:02:37;;;;;;;6.00;1.97;;;16.70;73.60;;;;;;5011658;28;20430;-67
2021/05/08 09:05:05;;;;;;;2.87;2.67;;;16.10;72.50;;;;;;5002146;28;20965;-72
2021/05/08 09:07:31;;;;;;;2.57;2.37;;;16.40;74.90;;;;;;4997177;28;20192;-72
2021/05/08 09:09:57;;;;;;;2.87;2.67;;;16.50;69.40;;;;;;4991704;28;20481;-72
2021/05/08 09:12:28;;;;;;;2.37;2.17;;;16.50;71.50;;;;;;4992214;28;20168;-73
2021/05/08 09:14:54;;;;;;;3.73;2.77;;;16.40;71.00;;;;;;4991957;28;20195;-73
2021/05/08 09:17:22;;;;;;;3.87;2.83;;;16.50;70.90;;;;;;4991419;28;20533;-72
2021/05/08 09:19:56;;;;;;;6.07;2.80;;;16.70;70.40;;;;;;4991648;28;20903;-72
2021/05/08 09:22:36;;;;;;;3.80;3.40;;;16.80;71.10;;;;;;4991833;28;20414;-73
2021/05/08 09:25:19;;;;;;;3.00;2.70;;;17.20;70.30;;;;;;4991713;28;20827;-72
2021/05/08 09:27:45;;;;;;;4.10;2.60;;;17.50;67.40;;;;;;4991628;28;20435;-72
2021/05/08 09:30:19;;;;;;;3.03;2.73;;;17.50;67.20;;;;;;4991546;28;20423;-72
2021/05/08 09:32:48;;;;;;;2.33;2.23;;;17.50;67.60;;;;;;4991669;28;20554;-72
2021/05/08 09:35:20;;;;;;;2.67;2.47;;;17.10;64.60;;;;;;4991547;28;20829;-72
2021/05/08 09:37:48;;;;;;;2.20;2.10;;;17.10;67.10;;;;;;4991474;28;20438;-72
2021/05/08 09:40:20;;;;;;;3.13;2.30;;;17.40;65.90;;;;;;4991301;28;20418;-72
2021/05/08 09:42:56;;;;;;;4.20;2.60;;;17.70;64.70;;;;;;4991593;28;20419;-72
2021/05/08 09:45:23;;;;;;;3.43;2.80;;;17.90;64.00;;;;;;4991562;28;20432;-72
2021/05/08 09:47:50;;;;;;;4.50;2.33;;;17.80;64.50;;;;;;4991467;28;20964;-72
2021/05/08 09:50:20;;;;;;;2.43;2.23;;;17.80;61.90;;;;;;4991207;28;20917;-72
2021/05/08 09:52:46;;;;;;;2.50;2.30;;;18.30;62.40;;;;;;4991555;28;20418;-72
2021/05/08 09:55:13;;;;;;;2.80;2.60;;;18.20;59.90;;;;;;4991482;28;20458;-72
2021/05/08 09:57:39;;;;;;;2.13;1.93;;;18.20;60.30;;;;;;4991399;28;20506;-73
2021/05/08 10:00:29;;;;;;;2.70;2.50;;;19.10;58.50;;;;;;4991652;28;20753;-72
2021/05/08 10:03:01;;;;;;;2.43;2.30;;;19.90;55.60;;;;;;4991689;28;20419;-73
2021/05/08 10:05:26;;;;;;;2.00;1.90;;;20.60;54.30;;;;;;4991534;28;20421;-72
2021/05/08 10:07:52;;;;;;;2.57;2.03;;;19.90;52.90;;;;;;4991289;28;20443;-72
2021/05/08 10:10:19;;;;;;;1.70;1.60;;;20.00;52.50;;;;;;4991074;28;20179;-73
2021/05/08 10:12:45;;;;;;;2.60;2.40;;;20.90;51.10;;;;;;4991258;28;20175;-70
2021/05/08 10:15:11;;;;;;;2.60;2.40;;;22.00;50.20;;;;;;4991110;28;20455;-70
2021/05/08 10:17:38;;;;;;;2.60;2.50;;;22.70;48.60;;;;;;4991118;28;20497;-73
2021/05/08 10:20:12;;;;;;;3.43;1.90;;;23.10;47.10;;;;;;4991187;28;20858;-73
2021/05/08 10:22:46;;;;;;;2.30;2.20;;;23.80;45.90;;;;;;4991125;28;20430;-71
2021/05/08 10:25:12;;;;;;;2.37;2.27;;;24.90;43.40;;;;;;4991216;28;20418;-72
2021/05/08 10:27:38;;;;;;;6.73;5.70;;;23.80;43.30;;;;;;4991045;28;20525;-73
2021/05/08 10:30:09;;;;;;;2.90;1.93;;;25.80;42.20;;;;;;4992591;28;20466;-72
2021/05/08 10:32:39;;;;;;;2.10;1.60;;;27.40;39.60;;;;;;4995149;28;20176;-71
2021/05/08 10:35:05;;;;;;;2.23;2.03;;;26.60;39.10;;;;;;4994840;28;20462;-70
2021/05/08 10:37:31;;;;;;;2.70;2.23;;;25.80;38.50;;;;;;4995026;28;21018;-71
2021/05/08 10:40:14;;;;;;;2.60;1.93;;;26.90;38.20;;;;;;4994527;28;20891;-73
2021/05/08 10:42:44;;;;;;;1.80;1.63;;;27.40;36.70;;;;;;4994863;28;20517;-73
2021/05/08 10:45:12;;;;;;;2.20;2.10;;;27.50;35.70;;;;;;4994643;28;20427;-73
2021/05/08 10:47:56;;;;;;;2.40;2.20;;;27.60;34.90;;;;;;4994403;28;20512;-73
2021/05/08 10:50:26;;;;;;;2.30;1.80;;;26.50;36.70;;;;;;4994301;28;20423;-70
2021/05/08 10:53:02;;;;;;;2.13;1.93;;;24.80;36.90;;;;;;4994544;28;20840;-72
2021/05/08 10:55:29;;;;;;;2.00;1.90;;;24.00;37.60;;;;;;4994637;28;20970;-73
2021/05/08 10:58:21;;;;;;;1.60;1.50;;;24.20;38.00;;;;;;4994479;28;20438;-72
2021/05/08 11:00:47;;;;;;;2.93;2.63;;;26.50;36.80;;;;;;4986069;28;20509;-73
2021/05/08 11:03:14;;;;;;;3.17;1.90;;;28.30;33.90;;;;;;4994563;28;20590;-72
2021/05/08 11:05:54;;;;;;;1.87;1.77;;;27.10;34.50;;;;;;4993314;28;20457;-70
2021/05/08 11:08:25;;;;;;;2.43;1.80;;;26.80;34.50;;;;;;4993236;28;20951;-70
2021/05/08 11:10:55;;;;;;;2.60;2.20;;;25.20;34.90;;;;;;4994070;28;20907;-72
2021/05/08 11:13:24;;;;;;;2.40;2.30;;;22.90;37.60;;;;;;4994443;28;20951;-72
2021/05/08 11:15:53;;;;;;;2.30;2.10;;;22.50;39.20;;;;;;4993750;28;20470;-72
2021/05/08 11:18:34;;;;;;;2.53;2.33;;;23.60;38.80;;;;;;4994091;28;20441;-72
2021/05/08 11:21:03;;;;;;;7.23;2.00;;;24.50;37.60;;;;;;4993743;28;20595;-72
2021/05/08 11:23:44;;;;;;;2.57;2.37;;;25.10;36.60;;;;;;4993921;28;20444;-72
2021/05/08 11:26:42;;;;;;;2.43;2.23;;;24.30;35.90;;;;;;4993701;28;20853;-72
2021/05/08 11:29:15;;;;;;;2.97;2.77;;;25.20;36.20;;;;;;4989237;28;20462;-70
2021/05/08 11:31:50;;;;;;;2.73;2.53;;;24.70;37.10;;;;;;4993832;28;20510;-70
2021/05/08 11:34:27;;;;;;;3.10;2.90;;;24.40;37.90;;;;;;4993843;28;20447;-72
2021/05/08 11:37:03;;;;;;;2.10;2.00;;;24.20;38.00;;;;;;4993673;28;20537;-72
2021/05/08 11:39:50;;;;;;;3.47;3.17;;;24.50;38.00;;;;;;4993393;28;20410;-71
2021/05/08 11:42:15;;;;;;;4.73;2.37;;;24.10;38.50;;;;;;4993373;28;20427;-71
2021/05/08 11:44:53;;;;;;;4.70;2.97;;;23.60;38.70;;;;;;4993595;28;20498;-71
2021/05/08 11:47:38;;;;;;;2.67;2.47;;;23.50;39.60;;;;;;4993556;28;20632;-73
2021/05/08 11:50:13;;;;;;;2.77;2.57;;;22.80;39.90;;;;;;4993265;28;20511;-73
2021/05/08 11:52:40;;;;;;;2.30;2.20;;;22.40;40.90;;;;;;4993391;28;20939;-71
2021/05/08 11:55:16;;;;;;;3.20;2.97;;;21.90;40.60;;;;;;4993260;28;20830;-73
2021/05/08 11:57:44;;;;;;;3.07;2.73;;;21.40;40.90;;;;;;4993268;28;20521;-70
2021/05/08 12:00:31;;;;;;;2.70;2.23;;;21.80;41.40;;;;;;4992922;28;20422;-71
2021/05/08 12:03:10;;;;;;;2.63;2.43;;;22.40;41.20;;;;;;4993545;28;20421;-71
2021/05/08 12:05:37;;;;;;;2.73;2.50;;;22.10;41.10;;;;;;4993310;28;20430;-72
2021/05/08 12:08:03;;;;;;;2.80;2.57;;;21.20;41.60;;;;;;4993305;28;20486;-71
2021/05/08 12:10:33;;;;;;;2.87;2.67;;;22.30;41.40;;;;;;4991788;28;20442;-71
2021/05/08 12:12:59;;;;;;;2.73;2.23;;;23.70;40.20;;;;;;4993037;28;20207;-71
2021/05/08 12:15:32;;;;;;;1.90;1.80;;;24.10;38.70;;;;;;4992866;28;20493;-71
2021/05/08 12:18:00;;;;;;;2.67;2.00;;;24.50;38.40;;;;;;4992900;28;20191;-73
2021/05/08 12:20:27;;;;;;;2.00;1.90;;;25.30;38.00;;;;;;4992789;28;20454;-71
2021/05/08 12:22:56;;;;;;;2.60;2.40;;;25.50;37.60;;;;;;4993115;28;20823;-71
2021/05/08 12:25:23;;;;;;;3.00;2.70;;;25.40;36.90;;;;;;4993156;28;20422;-71
2021/05/08 12:28:09;;;;;;;3.30;2.03;;;23.30;37.50;;;;;;4993119;28;20439;-70
2021/05/08 12:30:34;;;;;;;2.47;2.27;;;22.50;39.50;;;;;;4992667;28;20948;-71
2021/05/08 12:33:01;;;;;;;2.37;2.17;;;22.10;40.00;;;;;;4993033;28;20429;-71
2021/05/08 12:35:26;;;;;;;2.23;2.03;;;21.70;41.00;;;;;;4992829;28;20203;-71
2021/05/08 12:37:51;;;;;;;2.93;2.23;;;21.40;41.70;;;;;;4992864;28;20438;-73
2021/05/08 12:40:29;;;;;;;2.37;2.27;;;20.80;42.00;;;;;;4992815;28;20175;-73
2021/05/08 12:42:55;;;;;;;2.77;2.57;;;20.60;42.90;;;;;;4992723;28;20234;-71
2021/05/08 12:45:21;;;;;;;1.97;1.87;;;20.50;42.70;;;;;;4992594;28;20474;-71
2021/05/08 12:47:47;;;;;;;2.70;2.50;;;20.40;42.60;;;;;;4992785;28;20290;-71
2021/05/08 12:50:14;;;;;;;2.13;2.00;;;20.20;43.30;;;;;;4991406;28;20418;-72
2021/05/08 12:52:42;;;;;;;2.57;2.23;;;20.00;43.90;;;;;;4991568;28;20554;-72